Terminal Aerodrome Forecast
Issued by NWS Binghamton, NY

Home | Current Version | Previous Version | Text Only | Print | Product List | Glossary On
Versions: 1 2 3 4 5 6 7 8 9 10 11 12 13 14 15 16 17 18 19 20
000
FTUS41 KBGM 262300
TAFBGM
TAF
KBGM 262337Z 2700/2724 35007KT P6SM OVC035
      TEMPO 2700/2702 3SM -SHSN
     FM270200 34005KT P6SM OVC025
     FM271200 30006KT P6SM SCT025 BKN040=

USA.gov is the U.S. government's official web portal to all federal, state and local government web resources and services.